createdAt,value
2018-09-23T00:00:33.729Z,13.50
2018-09-23T00:03:01.796Z,13.60
2018-09-23T00:05:29.885Z,13.50
2018-09-23T00:07:57.941Z,13.50
2018-09-23T00:10:26.039Z,13.50
2018-09-23T00:12:54.099Z,13.40
2018-09-23T00:15:22.190Z,13.30
2018-09-23T00:17:50.241Z,13.30
2018-09-23T00:20:18.317Z,13.30
2018-09-23T00:22:46.393Z,13.30
2018-09-23T00:25:14.451Z,13.30
2018-09-23T00:27:42.525Z,13.30
2018-09-23T00:30:10.586Z,13.20
2018-09-23T00:32:38.674Z,13.20
2018-09-23T00:35:06.745Z,13.20
2018-09-23T00:37:34.798Z,13.20
2018-09-23T00:40:02.878Z,13.20
2018-09-23T00:42:30.928Z,13.10
2018-09-23T00:44:59.014Z,13.20
2018-09-23T00:47:27.081Z,13.10
2018-09-23T00:49:55.145Z,13.00
2018-09-23T00:52:23.218Z,13.00
2018-09-23T00:54:51.289Z,13.00
2018-09-23T00:57:19.370Z,13.00
2018-09-23T00:59:47.433Z,13.00
2018-09-23T01:02:15.521Z,13.00
2018-09-23T01:04:43.625Z,13.00
2018-09-23T01:07:11.685Z,13.00
2018-09-23T01:09:39.767Z,12.90
2018-09-23T01:12:07.839Z,12.80
2018-09-23T01:14:35.929Z,12.90
2018-09-23T01:17:03.985Z,12.90
2018-09-23T01:19:32.074Z,12.90
2018-09-23T01:22:00.125Z,12.90
2018-09-23T01:24:28.182Z,12.90
2018-09-23T01:26:56.267Z,12.90
2018-09-23T01:29:24.344Z,12.90
2018-09-23T01:31:52.394Z,12.80
2018-09-23T01:34:20.458Z,12.80
2018-09-23T01:36:48.552Z,12.80
2018-09-23T01:39:16.612Z,12.80
2018-09-23T01:41:44.701Z,12.90
2018-09-23T01:44:12.749Z,12.90
2018-09-23T01:46:40.842Z,12.90
2018-09-23T01:49:08.890Z,12.90
2018-09-23T01:51:36.965Z,12.80
2018-09-23T01:54:05.009Z,12.80
2018-09-23T01:56:33.088Z,12.80
2018-09-23T01:59:01.168Z,12.80
2018-09-23T02:01:29.225Z,12.80
2018-09-23T02:03:57.313Z,12.80
2018-09-23T02:06:25.385Z,12.80
2018-09-23T02:08:53.449Z,12.80
2018-09-23T02:11:21.525Z,12.70
2018-09-23T02:13:49.594Z,12.70
2018-09-23T02:16:17.670Z,12.70
2018-09-23T02:18:45.732Z,12.60
2018-09-23T02:21:13.823Z,12.60
2018-09-23T02:23:41.925Z,12.60
2018-09-23T02:26:10.005Z,12.50
2018-09-23T02:28:38.060Z,12.50
2018-09-23T02:31:06.122Z,12.50
2018-09-23T02:33:34.185Z,12.50
2018-09-23T02:36:02.248Z,12.50
2018-09-23T02:38:30.322Z,12.50
2018-09-23T02:40:58.369Z,12.40
2018-09-23T02:43:26.526Z,12.40
2018-09-23T02:45:54.588Z,12.40
2018-09-23T02:48:22.644Z,12.40
2018-09-23T02:50:50.732Z,12.30
2018-09-23T02:53:18.789Z,12.40
2018-09-23T02:55:46.864Z,12.40
2018-09-23T02:58:14.941Z,12.40
2018-09-23T03:00:43.015Z,12.40
2018-09-23T03:03:11.069Z,12.40
2018-09-23T03:05:39.273Z,12.30
2018-09-23T03:08:07.326Z,12.30
2018-09-23T03:10:35.384Z,12.20
2018-09-23T03:13:03.453Z,12.20
2018-09-23T03:15:31.504Z,12.20
2018-09-23T03:17:59.582Z,12.20
2018-09-23T03:20:27.634Z,12.20
2018-09-23T03:22:55.687Z,12.20
2018-09-23T03:25:23.759Z,12.10
2018-09-23T03:27:51.820Z,12.20
2018-09-23T03:30:19.874Z,12.20
2018-09-23T03:32:47.938Z,12.10
2018-09-23T03:35:16.022Z,12.10
2018-09-23T03:37:44.081Z,12.10
2018-09-23T03:40:12.153Z,12.10
2018-09-23T03:42:40.357Z,12.10
2018-09-23T03:45:08.413Z,12.10
2018-09-23T03:47:36.494Z,12.00
2018-09-23T03:50:15.641Z,12.10
2018-09-23T03:52:43.714Z,12.00
2018-09-23T03:55:11.786Z,12.00
2018-09-23T03:57:39.846Z,12.00
2018-09-23T04:00:07.927Z,12.00
2018-09-23T04:02:35.996Z,12.10
2018-09-23T04:05:04.113Z,12.00
2018-09-23T04:07:32.171Z,12.00
2018-09-23T04:10:00.250Z,12.00
2018-09-23T04:12:28.384Z,12.00
2018-09-23T04:14:56.457Z,12.00
2018-09-23T04:17:24.529Z,12.00
2018-09-23T04:19:52.609Z,12.00
2018-09-23T04:22:20.668Z,12.00
2018-09-23T04:24:48.733Z,12.00
2018-09-23T04:27:16.789Z,12.00
2018-09-23T04:29:44.908Z,12.00
2018-09-23T04:32:12.965Z,12.00
2018-09-23T04:34:41.045Z,12.00
2018-09-23T04:37:09.097Z,12.00
2018-09-23T04:39:37.161Z,12.00
2018-09-23T04:42:05.241Z,12.00
2018-09-23T04:44:33.314Z,12.00
2018-09-23T04:47:01.377Z,12.00
2018-09-23T04:49:29.445Z,12.00
2018-09-23T04:51:57.497Z,12.00
2018-09-23T04:54:25.577Z,11.90
2018-09-23T04:56:53.678Z,11.90
2018-09-23T04:59:21.736Z,12.00
2018-09-23T05:01:49.806Z,12.00
2018-09-23T05:04:17.899Z,12.00
2018-09-23T05:06:45.957Z,12.00
2018-09-23T05:09:14.030Z,12.00
2018-09-23T05:11:42.086Z,12.00
2018-09-23T05:14:10.306Z,12.00
2018-09-23T05:16:38.413Z,12.00
2018-09-23T05:19:06.480Z,12.00
2018-09-23T05:21:34.537Z,12.00
2018-09-23T05:24:02.602Z,12.00
2018-09-23T05:26:30.740Z,12.00
2018-09-23T05:28:58.817Z,12.00
2018-09-23T05:31:26.937Z,12.00
2018-09-23T05:33:55.031Z,12.00
2018-09-23T05:36:23.162Z,12.00
2018-09-23T05:38:51.252Z,12.00
2018-09-23T05:41:19.330Z,12.10
2018-09-23T05:43:47.432Z,12.10
2018-09-23T05:46:15.513Z,12.10
2018-09-23T05:48:43.642Z,12.10
2018-09-23T05:51:11.719Z,12.10
2018-09-23T05:53:39.794Z,12.10
2018-09-23T05:56:07.908Z,12.10
2018-09-23T05:58:35.997Z,12.20
2018-09-23T06:01:04.069Z,12.20
2018-09-23T06:03:32.172Z,12.30
2018-09-23T06:06:00.261Z,12.30
2018-09-23T06:08:28.405Z,12.30
2018-09-23T06:10:56.507Z,12.30
2018-09-23T06:13:24.589Z,12.30
2018-09-23T06:15:53.535Z,12.30
2018-09-23T06:18:21.636Z,12.40
2018-09-23T06:20:49.701Z,12.40
2018-09-23T06:23:17.812Z,12.40
2018-09-23T06:25:45.881Z,12.50
2018-09-23T06:28:13.970Z,12.50
2018-09-23T06:30:42.013Z,12.50
2018-09-23T06:33:10.094Z,12.60
2018-09-23T06:35:38.189Z,12.60
2018-09-23T06:38:06.260Z,12.60
2018-09-23T06:40:34.309Z,12.60
2018-09-23T06:43:02.366Z,12.70
2018-09-23T06:45:30.446Z,12.70
2018-09-23T06:47:58.517Z,12.80
2018-09-23T06:50:26.571Z,12.80
2018-09-23T06:52:54.621Z,12.80
2018-09-23T06:55:22.701Z,12.90
2018-09-23T06:57:50.754Z,12.90
2018-09-23T07:00:18.813Z,13.00
2018-09-23T07:02:46.881Z,13.00
2018-09-23T07:05:14.957Z,13.00
2018-09-23T07:07:43.023Z,13.00
2018-09-23T07:10:11.095Z,13.00
2018-09-23T07:12:39.141Z,13.00
2018-09-23T07:15:07.213Z,13.00
2018-09-23T07:17:35.283Z,13.10
2018-09-23T07:20:03.352Z,13.10
2018-09-23T07:22:31.410Z,13.20
2018-09-23T07:24:59.493Z,13.20
2018-09-23T07:27:27.899Z,13.20
2018-09-23T07:29:55.992Z,13.20
2018-09-23T07:32:24.259Z,13.20
2018-09-23T07:34:52.322Z,13.20
2018-09-23T07:37:20.370Z,13.30
2018-09-23T07:39:48.605Z,13.30
2018-09-23T07:42:16.666Z,13.30
2018-09-23T07:44:44.725Z,13.40
2018-09-23T07:47:12.777Z,13.50
2018-09-23T07:49:40.845Z,13.60
2018-09-23T07:52:08.909Z,13.60
2018-09-23T07:54:36.965Z,13.60
2018-09-23T07:57:05.026Z,13.70
2018-09-23T07:59:33.120Z,13.70
2018-09-23T08:02:01.166Z,13.70
2018-09-23T08:04:29.846Z,13.80
2018-09-23T08:06:58.057Z,13.80
2018-09-23T08:09:26.145Z,13.80
2018-09-23T08:11:54.229Z,13.80
2018-09-23T08:14:22.687Z,13.80
2018-09-23T08:16:50.382Z,13.80
2018-09-23T08:19:18.516Z,13.80
2018-09-23T08:21:46.528Z,13.80
2018-09-23T08:24:14.618Z,13.90
2018-09-23T08:26:42.711Z,13.90
2018-09-23T08:29:10.793Z,13.90
2018-09-23T08:31:38.848Z,13.90
2018-09-23T08:34:07.003Z,14.00
2018-09-23T08:36:35.077Z,14.00
2018-09-23T08:39:03.163Z,14.00
2018-09-23T08:41:31.316Z,14.00
2018-09-23T08:43:59.417Z,14.00
2018-09-23T08:46:27.517Z,14.10
2018-09-23T08:48:55.577Z,14.10
2018-09-23T08:51:23.704Z,14.20
2018-09-23T08:53:52.375Z,14.30
2018-09-23T08:56:20.517Z,14.40
2018-09-23T08:58:48.655Z,14.50
2018-09-23T09:01:16.793Z,14.40
2018-09-23T09:03:44.931Z,14.50
2018-09-23T09:06:13.058Z,14.50
2018-09-23T09:08:41.210Z,14.40
2018-09-23T09:11:09.300Z,14.40
2018-09-23T09:13:37.378Z,14.40
2018-09-23T09:16:05.637Z,14.50
2018-09-23T09:18:33.857Z,14.40
2018-09-23T09:21:02.187Z,14.40
2018-09-23T09:23:30.665Z,14.50
2018-09-23T09:25:58.833Z,14.50
2018-09-23T09:28:27.004Z,14.50
2018-09-23T09:30:55.105Z,14.50
2018-09-23T09:33:23.246Z,14.50
2018-09-23T09:35:51.331Z,14.40
2018-09-23T09:38:19.616Z,14.50
2018-09-23T09:40:47.762Z,14.50
2018-09-23T09:43:15.957Z,14.50
2018-09-23T09:45:44.036Z,14.50
2018-09-23T09:48:12.378Z,14.50
2018-09-23T09:50:40.461Z,14.60
2018-09-23T09:53:08.545Z,14.60
2018-09-23T09:55:36.631Z,14.70
2018-09-23T09:58:04.740Z,14.70
2018-09-23T10:00:35.618Z,14.70
2018-09-23T10:03:05.329Z,14.80
2018-09-23T10:05:33.430Z,14.70
2018-09-23T10:08:01.554Z,14.80
2018-09-23T10:10:29.785Z,14.80
2018-09-23T10:12:57.973Z,14.80
2018-09-23T10:15:26.221Z,14.70
2018-09-23T10:17:54.655Z,14.60
2018-09-23T10:20:22.794Z,14.60
2018-09-23T10:22:50.897Z,14.50
2018-09-23T10:25:19.051Z,14.60
2018-09-23T10:27:47.165Z,14.60
2018-09-23T10:30:15.251Z,14.70
2018-09-23T10:32:43.394Z,14.70
2018-09-23T10:35:11.628Z,14.70
2018-09-23T10:37:39.760Z,14.70
2018-09-23T10:40:07.943Z,14.70
2018-09-23T10:42:36.095Z,14.70
2018-09-23T10:45:04.749Z,14.70
2018-09-23T10:47:32.898Z,14.70
2018-09-23T10:50:01.977Z,14.60
2018-09-23T10:52:30.114Z,14.60
2018-09-23T10:54:58.217Z,14.60
2018-09-23T10:57:26.546Z,14.70
2018-09-23T10:59:54.668Z,14.70
2018-09-23T11:02:23.038Z,14.70
2018-09-23T11:04:51.110Z,14.70
2018-09-23T11:07:19.194Z,14.70
2018-09-23T11:09:47.333Z,14.70
2018-09-23T11:12:15.378Z,14.70
2018-09-23T11:14:43.478Z,14.70
2018-09-23T11:17:11.570Z,14.70
2018-09-23T11:19:39.775Z,14.70
2018-09-23T11:22:07.925Z,14.70
2018-09-23T11:24:36.200Z,14.80
2018-09-23T11:27:04.413Z,14.80
2018-09-23T11:29:32.615Z,14.80
2018-09-23T11:32:00.873Z,14.80
2018-09-23T11:34:28.943Z,14.70
2018-09-23T11:36:57.051Z,14.70
2018-09-23T11:39:25.194Z,14.80
2018-09-23T11:41:53.359Z,14.80
2018-09-23T11:44:21.438Z,14.90
2018-09-23T11:46:49.530Z,15.00
2018-09-23T11:49:17.634Z,15.10
2018-09-23T11:51:45.717Z,15.20
2018-09-23T11:54:13.815Z,15.20
2018-09-23T11:56:41.919Z,15.10
2018-09-23T11:59:09.993Z,15.00
2018-09-23T12:01:38.073Z,14.90
2018-09-23T12:04:06.147Z,14.80
2018-09-23T12:06:34.264Z,14.80
2018-09-23T12:09:03.127Z,14.80
2018-09-23T12:11:31.222Z,14.80
2018-09-23T12:13:59.378Z,14.90
2018-09-23T12:16:27.513Z,14.90
2018-09-23T12:18:55.621Z,15.00
2018-09-23T12:21:23.688Z,15.00
2018-09-23T12:23:51.881Z,14.90
2018-09-23T12:26:20.079Z,14.90
2018-09-23T12:28:48.181Z,14.90
2018-09-23T12:31:16.822Z,14.90
2018-09-23T12:33:45.751Z,14.90
2018-09-23T12:36:13.883Z,14.90
2018-09-23T12:38:41.951Z,14.80
2018-09-23T12:41:10.025Z,14.80
2018-09-23T12:43:38.118Z,14.80
2018-09-23T12:46:06.786Z,14.80
2018-09-23T12:48:35.576Z,14.80
2018-09-23T12:51:03.847Z,14.80
2018-09-23T12:53:31.945Z,14.70
2018-09-23T12:56:00.088Z,14.70
2018-09-23T12:58:28.668Z,14.70
2018-09-23T13:00:56.792Z,14.60
2018-09-23T13:03:24.894Z,14.50
2018-09-23T13:05:53.009Z,14.50
2018-09-23T13:08:21.092Z,14.50
2018-09-23T13:10:49.197Z,14.30
2018-09-23T13:13:17.262Z,14.30
2018-09-23T13:15:45.337Z,14.20
2018-09-23T13:18:13.547Z,14.20
2018-09-23T13:20:41.617Z,14.10
2018-09-23T13:23:09.723Z,14.10
2018-09-23T13:25:37.808Z,14.00
2018-09-23T13:28:06.037Z,14.00
2018-09-23T13:30:34.120Z,13.90
2018-09-23T13:33:02.449Z,13.80
2018-09-23T13:35:30.554Z,13.70
2018-09-23T13:37:58.648Z,13.70
2018-09-23T13:40:26.748Z,13.70
2018-09-23T13:42:54.830Z,13.60
2018-09-23T13:45:22.898Z,13.60
2018-09-23T13:47:51.340Z,13.60
2018-09-23T13:50:19.690Z,13.60
2018-09-23T13:52:47.815Z,13.60
2018-09-23T13:55:15.905Z,13.40
2018-09-23T13:57:43.985Z,13.40
2018-09-23T14:00:12.126Z,13.30
2018-09-23T14:02:40.463Z,13.30
2018-09-23T14:05:11.023Z,13.20
2018-09-23T14:07:54.587Z,13.20
2018-09-23T14:10:22.878Z,13.20
2018-09-23T14:12:51.136Z,13.10
2018-09-23T14:15:19.280Z,13.10
2018-09-23T14:17:47.493Z,13.20
2018-09-23T14:20:15.691Z,13.10
2018-09-23T14:22:43.944Z,13.10
2018-09-23T14:25:12.160Z,13.20
2018-09-23T14:27:40.291Z,13.10
2018-09-23T14:30:08.400Z,13.20
2018-09-23T14:32:36.526Z,13.10
2018-09-23T14:35:04.683Z,13.10
2018-09-23T14:37:32.774Z,13.00
2018-09-23T14:40:01.021Z,13.00
2018-09-23T14:42:29.211Z,12.90
2018-09-23T14:44:57.284Z,13.00
2018-09-23T14:47:25.360Z,12.90
2018-09-23T14:49:53.609Z,13.00
2018-09-23T14:52:22.038Z,13.00
2018-09-23T14:54:50.230Z,12.90
2018-09-23T14:57:18.325Z,12.90
2018-09-23T14:59:46.459Z,12.90
2018-09-23T15:02:14.612Z,12.90
2018-09-23T15:04:42.700Z,12.90
2018-09-23T15:07:11.481Z,12.80
2018-09-23T15:09:53.732Z,12.80
2018-09-23T15:12:21.873Z,12.80
2018-09-23T15:14:50.705Z,12.80
2018-09-23T15:17:19.164Z,12.60
2018-09-23T15:19:47.405Z,12.60
2018-09-23T15:22:15.646Z,12.70
2018-09-23T15:24:43.736Z,12.70
2018-09-23T15:27:11.834Z,12.60
2018-09-23T15:29:40.190Z,12.70
2018-09-23T15:32:08.170Z,12.70
2018-09-23T15:34:36.213Z,12.60
2018-09-23T15:37:05.400Z,12.60
2018-09-23T15:39:33.520Z,12.50
2018-09-23T15:42:16.388Z,12.40
2018-09-23T15:44:44.693Z,12.40
2018-09-23T15:47:12.804Z,12.50
2018-09-23T15:49:41.106Z,12.40
2018-09-23T15:52:10.110Z,12.40
2018-09-23T15:54:45.086Z,12.50
2018-09-23T15:57:13.257Z,12.50
2018-09-23T15:59:41.345Z,12.50
2018-09-23T16:02:09.527Z,12.60
2018-09-23T16:04:37.702Z,12.60
2018-09-23T16:07:05.804Z,12.50
2018-09-23T16:09:33.941Z,12.50
2018-09-23T16:12:02.029Z,12.50
2018-09-23T16:14:30.118Z,12.50
2018-09-23T16:16:58.538Z,12.40
2018-09-23T16:19:26.842Z,12.30
2018-09-23T16:21:54.965Z,12.30
2018-09-23T16:24:23.076Z,12.30
2018-09-23T16:26:51.174Z,12.30
2018-09-23T16:29:19.261Z,12.30
2018-09-23T16:31:47.485Z,12.30
2018-09-23T16:34:15.542Z,12.30
2018-09-23T16:36:43.640Z,12.20
2018-09-23T16:39:12.171Z,12.30
2018-09-23T16:41:40.284Z,12.20
2018-09-23T16:44:08.737Z,12.20
2018-09-23T16:46:36.823Z,12.10
2018-09-23T16:49:04.923Z,12.10
2018-09-23T16:51:33.053Z,12.20
2018-09-23T16:54:02.314Z,12.30
2018-09-23T16:56:30.393Z,12.20
2018-09-23T16:58:58.509Z,12.30
2018-09-23T17:01:26.610Z,12.20
2018-09-23T17:03:54.761Z,12.10
2018-09-23T17:06:22.927Z,12.20
2018-09-23T17:08:51.071Z,12.30
2018-09-23T17:11:19.197Z,12.40
2018-09-23T17:13:47.345Z,12.40
2018-09-23T17:16:15.475Z,12.50
2018-09-23T17:18:43.592Z,12.60
2018-09-23T17:21:11.736Z,12.50
2018-09-23T17:23:39.938Z,12.50
2018-09-23T17:26:08.070Z,12.50
2018-09-23T17:28:36.278Z,12.60
2018-09-23T17:31:04.423Z,12.60
2018-09-23T17:33:32.550Z,12.50
2018-09-23T17:36:00.994Z,12.40
2018-09-23T17:38:29.390Z,12.40
2018-09-23T17:40:57.535Z,12.40
2018-09-23T17:43:25.694Z,12.20
2018-09-23T17:45:53.825Z,12.20
2018-09-23T17:48:22.080Z,12.20
2018-09-23T17:50:50.302Z,12.10
2018-09-23T17:53:18.636Z,12.20
2018-09-23T17:55:46.908Z,12.30
2018-09-23T17:58:15.019Z,12.30
2018-09-23T18:00:43.842Z,12.40
2018-09-23T18:03:13.073Z,12.30
2018-09-23T18:05:41.219Z,12.30
2018-09-23T18:08:09.361Z,12.30
2018-09-23T18:10:37.498Z,12.30
2018-09-23T18:13:05.737Z,12.30
2018-09-23T18:15:33.842Z,12.40
2018-09-23T18:18:01.929Z,12.30
2018-09-23T18:20:30.051Z,12.40
2018-09-23T18:22:58.225Z,12.40
2018-09-23T18:25:26.325Z,12.40
2018-09-23T18:27:54.411Z,12.30
2018-09-23T18:30:22.941Z,12.30
2018-09-23T18:32:51.061Z,12.40
2018-09-23T18:35:19.184Z,12.40
2018-09-23T18:37:47.278Z,12.30
2018-09-23T18:40:15.409Z,12.30
2018-09-23T18:42:43.485Z,12.30
2018-09-23T18:45:11.640Z,12.20
2018-09-23T18:47:39.737Z,12.10
2018-09-23T18:50:07.838Z,12.10
2018-09-23T18:52:36.005Z,12.00
2018-09-23T18:55:09.601Z,12.00
2018-09-23T18:57:37.794Z,11.90
2018-09-23T19:00:05.976Z,11.90
2018-09-23T19:02:34.121Z,11.80
2018-09-23T19:05:02.351Z,11.80
2018-09-23T19:07:30.521Z,11.80
2018-09-23T19:09:58.615Z,11.80
2018-09-23T19:12:26.746Z,11.70
2018-09-23T19:14:54.939Z,11.60
2018-09-23T19:17:23.125Z,11.30
2018-09-23T19:19:56.682Z,11.20
2018-09-23T19:22:30.249Z,11.20
2018-09-23T19:24:58.353Z,11.30
2018-09-23T19:27:26.440Z,11.20
2018-09-23T19:29:54.578Z,11.30
2018-09-23T19:32:22.691Z,11.20
2018-09-23T19:34:50.773Z,11.10
2018-09-23T19:37:18.873Z,11.10
2018-09-23T19:39:47.022Z,11.10
2018-09-23T19:42:15.131Z,11.10
2018-09-23T19:44:43.230Z,11.10
2018-09-23T19:47:11.329Z,10.90
2018-09-23T19:49:39.506Z,11.00
2018-09-23T19:52:07.543Z,10.90
2018-09-23T19:54:35.638Z,10.70
2018-09-23T19:57:03.766Z,10.80
2018-09-23T19:59:31.848Z,10.80
2018-09-23T20:02:00.123Z,10.80
2018-09-23T20:04:28.502Z,10.90
2018-09-23T20:06:56.611Z,10.80
2018-09-23T20:09:24.738Z,10.80
2018-09-23T20:11:53.344Z,10.80
2018-09-23T20:14:21.785Z,10.90
2018-09-23T20:16:52.931Z,10.80
2018-09-23T20:19:21.309Z,10.90
2018-09-23T20:21:50.399Z,10.80
2018-09-23T20:24:18.611Z,10.70
2018-09-23T20:26:46.826Z,10.70
2018-09-23T20:29:14.974Z,10.70
2018-09-23T20:31:43.665Z,10.70
2018-09-23T20:34:12.294Z,10.60
2018-09-23T20:36:40.568Z,10.50
2018-09-23T20:39:09.609Z,10.60
2018-09-23T20:41:37.844Z,10.60
2018-09-23T20:44:06.542Z,10.60
2018-09-23T20:46:34.660Z,10.60
2018-09-23T20:49:02.938Z,10.50
2018-09-23T20:51:31.282Z,10.50
2018-09-23T20:53:59.403Z,10.40
2018-09-23T20:56:27.499Z,10.20
2018-09-23T20:58:55.649Z,10.20
2018-09-23T21:01:24.122Z,10.20
2018-09-23T21:03:52.651Z,10.20
2018-09-23T21:06:20.721Z,10.10
2018-09-23T21:08:48.860Z,10.10
2018-09-23T21:11:16.990Z,10.00
2018-09-23T21:13:45.100Z,10.10
2018-09-23T21:16:13.632Z,10.10
2018-09-23T21:18:41.749Z,10.10
2018-09-23T21:21:09.864Z,10.10
2018-09-23T21:23:37.982Z,10.10
2018-09-23T21:26:06.157Z,10.20
2018-09-23T21:28:34.301Z,10.20
2018-09-23T21:31:02.481Z,9.90
2018-09-23T21:33:30.782Z,10.00
2018-09-23T21:35:58.854Z,10.30
2018-09-23T21:38:27.045Z,10.30
2018-09-23T21:40:55.162Z,10.40
2018-09-23T21:43:23.394Z,10.20
2018-09-23T21:45:51.673Z,10.10
2018-09-23T21:48:19.749Z,10.10
2018-09-23T21:50:47.832Z,10.00
2018-09-23T21:53:15.991Z,10.00
2018-09-23T21:55:44.073Z,9.80
2018-09-23T21:58:12.169Z,9.80
2018-09-23T22:00:43.973Z,9.70
2018-09-23T22:03:13.407Z,9.70
2018-09-23T22:05:41.481Z,9.70
2018-09-23T22:08:10.366Z,9.70
2018-09-23T22:10:38.429Z,9.60
2018-09-23T22:13:06.745Z,9.60
2018-09-23T22:15:34.841Z,9.50
2018-09-23T22:18:02.910Z,9.40
2018-09-23T22:20:31.012Z,9.40
2018-09-23T22:22:59.142Z,9.40
2018-09-23T22:25:27.308Z,9.40
2018-09-23T22:27:55.649Z,9.50
2018-09-23T22:30:23.986Z,9.40
2018-09-23T22:32:52.087Z,9.40
2018-09-23T22:35:20.181Z,9.40
2018-09-23T22:37:48.441Z,9.30
2018-09-23T22:40:16.613Z,9.30
2018-09-23T22:42:44.787Z,9.40
2018-09-23T22:45:12.914Z,9.40
2018-09-23T22:47:40.997Z,9.40
2018-09-23T22:50:09.237Z,9.40
2018-09-23T22:52:37.427Z,9.40
2018-09-23T22:55:05.508Z,9.50
2018-09-23T22:57:33.635Z,9.40
2018-09-23T23:00:01.801Z,9.40
2018-09-23T23:02:30.046Z,9.30
2018-09-23T23:04:58.268Z,9.30
2018-09-23T23:07:26.461Z,9.30
2018-09-23T23:09:54.674Z,9.30
2018-09-23T23:12:22.828Z,9.30
2018-09-23T23:14:50.995Z,9.30
2018-09-23T23:17:19.087Z,9.40
2018-09-23T23:19:47.290Z,9.30
2018-09-23T23:22:15.352Z,9.30
2018-09-23T23:24:43.404Z,9.30
2018-09-23T23:27:11.519Z,9.20
2018-09-23T23:29:39.578Z,9.30
2018-09-23T23:32:08.042Z,9.30
2018-09-23T23:34:36.105Z,9.40
2018-09-23T23:37:04.177Z,9.40
2018-09-23T23:39:32.238Z,9.40
2018-09-23T23:42:00.289Z,9.40
2018-09-23T23:44:28.331Z,9.40
2018-09-23T23:46:56.380Z,9.40
2018-09-23T23:49:24.453Z,9.40
2018-09-23T23:51:52.530Z,9.40
2018-09-23T23:54:20.568Z,9.50
2018-09-23T23:56:48.642Z,9.50
2018-09-23T23:59:16.687Z,9.50
